createdAt,value
2022-11-05T00:00:07.463Z,8.13
2022-11-05T00:02:53.012Z,7.25
2022-11-05T00:05:38.331Z,7.57
2022-11-05T00:08:25.451Z,8.00
2022-11-05T00:10:53.473Z,8.80
2022-11-05T00:13:39.291Z,7.85
2022-11-05T00:16:36.260Z,7.70
2022-11-05T00:19:10.280Z,7.57
2022-11-05T00:21:58.224Z,5.88
2022-11-05T00:24:45.037Z,7.40
2022-11-05T00:27:13.095Z,7.10
2022-11-05T00:29:41.142Z,6.93
2022-11-05T00:32:09.212Z,7.68
2022-11-05T00:34:37.538Z,7.78
2022-11-05T00:37:05.783Z,7.85
2022-11-05T00:39:35.166Z,9.05
2022-11-05T00:42:20.728Z,8.68
2022-11-05T00:45:01.955Z,7.15
2022-11-05T00:47:47.941Z,7.72
2022-11-05T00:50:16.206Z,8.05
2022-11-05T00:52:56.578Z,7.10
2022-11-05T00:55:29.052Z,7.60
2022-11-05T00:57:58.122Z,7.72
2022-11-05T01:00:28.051Z,7.18
2022-11-05T01:02:58.997Z,6.45
2022-11-05T01:05:26.981Z,7.20
2022-11-05T01:07:55.491Z,6.93
2022-11-05T01:10:25.716Z,6.88
2022-11-05T01:12:55.317Z,7.10
2022-11-05T01:15:25.295Z,6.88
2022-11-05T01:17:53.333Z,7.50
2022-11-05T01:20:21.409Z,6.63
2022-11-05T01:22:49.410Z,7.05
2022-11-05T01:25:17.645Z,6.85
2022-11-05T01:27:45.701Z,6.40
2022-11-05T01:30:15.716Z,7.32
2022-11-05T01:32:43.876Z,8.27
2022-11-05T01:35:14.583Z,7.80
2022-11-05T01:37:43.076Z,8.13
2022-11-05T01:40:13.454Z,6.68
2022-11-05T01:42:41.579Z,6.55
2022-11-05T01:45:18.547Z,7.82
2022-11-05T01:47:59.428Z,6.03
2022-11-05T01:50:36.085Z,5.85
2022-11-05T01:53:10.314Z,5.88
2022-11-05T01:55:43.526Z,6.45
2022-11-05T01:58:17.312Z,6.78
2022-11-05T02:00:46.839Z,5.87
2022-11-05T02:03:16.231Z,6.38
2022-11-05T02:05:45.075Z,6.30
2022-11-05T02:08:20.715Z,6.18
2022-11-05T02:10:49.718Z,6.57
2022-11-05T02:13:17.750Z,6.50
2022-11-05T02:15:57.019Z,6.88
2022-11-05T02:18:36.395Z,6.60
2022-11-05T02:21:22.630Z,7.03
2022-11-05T02:24:26.275Z,7.15
2022-11-05T02:27:07.386Z,6.43
2022-11-05T02:30:05.403Z,6.78
2022-11-05T02:32:46.871Z,7.13
2022-11-05T02:35:26.956Z,6.82
2022-11-05T02:38:01.330Z,6.90
2022-11-05T02:40:37.407Z,6.78
2022-11-05T02:43:16.184Z,6.57
2022-11-05T02:45:51.157Z,6.72
2022-11-05T02:48:27.103Z,6.80
2022-11-05T02:51:00.105Z,6.47
2022-11-05T02:53:40.162Z,6.63
2022-11-05T02:56:14.923Z,7.43
2022-11-05T02:58:42.938Z,7.03
2022-11-05T03:01:12.566Z,6.50
2022-11-05T03:03:44.695Z,6.53
2022-11-05T03:06:42.986Z,6.93
2022-11-05T03:09:39.067Z,7.10
2022-11-05T03:12:15.504Z,7.00
2022-11-05T03:14:52.010Z,7.07
2022-11-05T03:17:30.662Z,6.78
2022-11-05T03:20:07.410Z,6.80
2022-11-05T03:22:40.174Z,6.78
2022-11-05T03:25:13.321Z,6.75
2022-11-05T03:27:47.287Z,6.75
2022-11-05T03:30:17.751Z,6.47
2022-11-05T03:32:48.767Z,6.75
2022-11-05T03:35:21.467Z,6.80
2022-11-05T03:37:53.547Z,6.50
2022-11-05T03:40:25.097Z,7.00
2022-11-05T03:42:56.867Z,7.00
2022-11-05T03:45:29.394Z,7.57
2022-11-05T03:48:01.911Z,8.05
2022-11-05T03:50:40.965Z,7.40
2022-11-05T03:53:15.161Z,7.68
2022-11-05T03:55:52.706Z,8.35
2022-11-05T03:58:23.157Z,6.85
2022-11-05T04:00:52.180Z,6.90
2022-11-05T04:03:20.285Z,6.97
2022-11-05T04:06:10.354Z,7.35
2022-11-05T04:08:55.779Z,7.07
2022-11-05T04:11:41.188Z,6.60
2022-11-05T04:14:09.288Z,6.30
2022-11-05T04:16:54.716Z,6.57
2022-11-05T04:19:36.686Z,7.15
2022-11-05T04:22:23.582Z,6.05
2022-11-05T04:24:51.586Z,6.30
2022-11-05T04:27:19.649Z,6.40
2022-11-05T04:30:05.405Z,7.55
2022-11-05T04:32:35.513Z,6.47
2022-11-05T04:35:03.700Z,7.38
2022-11-05T04:37:33.146Z,7.90
2022-11-05T04:40:01.161Z,7.95
2022-11-05T04:42:29.407Z,7.90
2022-11-05T04:44:57.492Z,8.27
2022-11-05T04:47:25.765Z,8.70
2022-11-05T04:49:54.383Z,8.80
2022-11-05T04:52:22.559Z,8.95
2022-11-05T04:54:54.374Z,9.75
2022-11-05T04:57:22.449Z,9.27
2022-11-05T04:59:52.055Z,9.55
2022-11-05T05:02:21.593Z,9.65
2022-11-05T05:04:50.469Z,9.32
2022-11-05T05:07:18.965Z,8.73
2022-11-05T05:09:47.042Z,8.23
2022-11-05T05:12:16.817Z,9.18
2022-11-05T05:14:44.947Z,8.35
2022-11-05T05:17:13.017Z,8.98
2022-11-05T05:19:59.160Z,8.80
2022-11-05T05:22:27.354Z,9.40
2022-11-05T05:24:56.595Z,8.95
2022-11-05T05:27:26.047Z,8.82
2022-11-05T05:29:54.173Z,8.57
2022-11-05T05:32:22.236Z,8.38
2022-11-05T05:34:50.415Z,9.38
2022-11-05T05:37:18.720Z,9.15
2022-11-05T05:39:47.872Z,8.82
2022-11-05T05:42:16.197Z,9.43
2022-11-05T05:44:45.895Z,10.02
2022-11-05T05:47:14.631Z,9.07
2022-11-05T05:49:42.663Z,8.70
2022-11-05T05:52:10.780Z,8.65
2022-11-05T05:54:42.666Z,8.95
2022-11-05T05:57:11.686Z,9.02
2022-11-05T05:59:39.699Z,9.32
2022-11-05T06:02:09.212Z,9.05
2022-11-05T06:04:37.845Z,8.75
2022-11-05T06:07:05.932Z,9.02
2022-11-05T06:09:33.938Z,8.73
2022-11-05T06:12:02.182Z,8.68
2022-11-05T06:14:30.214Z,9.07
2022-11-05T06:16:58.250Z,10.27
2022-11-05T06:19:27.943Z,9.95
2022-11-05T06:21:56.099Z,10.38
2022-11-05T06:24:24.091Z,9.90
2022-11-05T06:26:53.500Z,10.52
2022-11-05T06:29:21.560Z,10.57
2022-11-05T06:31:49.722Z,10.75
2022-11-05T06:34:19.674Z,10.93
2022-11-05T06:36:50.922Z,11.13
2022-11-05T06:39:18.991Z,10.02
2022-11-05T06:44:36.676Z,11.55
2022-11-05T06:47:04.836Z,10.55
2022-11-05T06:49:32.935Z,12.25
2022-11-05T06:52:02.979Z,11.77
2022-11-05T06:54:31.054Z,11.13
2022-11-05T06:56:59.114Z,12.38
2022-11-05T06:59:27.147Z,13.15
2022-11-05T07:01:55.633Z,13.55
2022-11-05T07:04:23.671Z,12.18
2022-11-05T07:06:51.673Z,12.32
2022-11-05T07:09:21.088Z,12.45
2022-11-05T07:11:49.387Z,13.43
2022-11-05T07:14:17.390Z,13.57
2022-11-05T07:16:45.724Z,13.15
2022-11-05T07:19:13.721Z,14.20
2022-11-05T07:21:41.896Z,14.88
2022-11-05T07:24:10.456Z,14.98
2022-11-05T07:26:40.163Z,15.75
2022-11-05T07:29:08.184Z,15.77
2022-11-05T07:31:36.215Z,16.50
2022-11-05T07:34:04.691Z,17.40
2022-11-05T07:36:32.711Z,16.35
2022-11-05T07:39:02.574Z,17.95
2022-11-05T07:41:30.531Z,17.02
2022-11-05T07:44:00.187Z,16.40
2022-11-05T07:46:28.287Z,15.63
2022-11-05T07:48:56.528Z,12.82
2022-11-05T07:51:24.537Z,12.43
2022-11-05T07:53:52.630Z,13.82
2022-11-05T07:56:20.729Z,12.60
2022-11-05T07:58:49.777Z,12.65
2022-11-05T08:01:19.445Z,12.60
2022-11-05T08:03:47.887Z,12.80
2022-11-05T08:06:16.159Z,12.63
2022-11-05T08:08:44.345Z,12.73
2022-11-05T08:11:13.077Z,11.93
2022-11-05T08:13:42.837Z,10.90
2022-11-05T08:16:11.112Z,11.65
2022-11-05T08:18:40.555Z,11.50
2022-11-05T08:21:09.571Z,11.45
2022-11-05T08:23:39.047Z,10.93
2022-11-05T08:26:07.098Z,11.10
2022-11-05T08:28:35.153Z,11.70
2022-11-05T08:31:03.276Z,14.07
2022-11-05T08:33:31.594Z,9.93
2022-11-05T08:36:05.256Z,10.15
2022-11-05T08:38:33.354Z,10.95
2022-11-05T08:41:01.988Z,9.15
2022-11-05T08:43:29.977Z,9.25
2022-11-05T08:45:58.089Z,8.10
2022-11-05T08:48:26.192Z,6.93
2022-11-05T08:50:54.285Z,6.65
2022-11-05T08:53:23.789Z,6.22
2022-11-05T08:55:51.864Z,5.15
2022-11-05T08:58:20.870Z,5.35
2022-11-05T09:00:50.717Z,5.90
2022-11-05T09:03:19.140Z,4.53
2022-11-05T09:05:47.511Z,5.07
2022-11-05T09:08:17.685Z,5.20
2022-11-05T09:10:49.770Z,5.63
2022-11-05T09:13:19.825Z,6.10
2022-11-05T09:15:49.128Z,5.30
2022-11-05T09:18:18.532Z,4.72
2022-11-05T09:20:46.939Z,4.78
2022-11-05T09:23:15.883Z,4.60
2022-11-05T09:25:44.899Z,3.88
2022-11-05T09:28:17.435Z,3.75
2022-11-05T09:30:47.383Z,3.75
2022-11-05T09:33:15.997Z,4.18
2022-11-05T09:35:44.460Z,3.78
2022-11-05T09:38:12.621Z,3.63
2022-11-05T09:40:43.919Z,3.65
2022-11-05T09:43:19.405Z,4.20
2022-11-05T09:45:54.155Z,3.90
2022-11-05T09:50:54.695Z,3.70
2022-11-05T09:53:25.058Z,3.38
2022-11-05T09:55:57.539Z,3.30
2022-11-05T09:58:37.279Z,3.00
2022-11-05T10:01:07.157Z,3.15
2022-11-05T10:03:40.175Z,3.20
2022-11-05T10:06:10.328Z,2.83
2022-11-05T10:08:42.669Z,2.22
2022-11-05T10:11:16.843Z,2.20
2022-11-05T10:13:48.913Z,2.40
2022-11-05T10:16:25.086Z,2.22
2022-11-05T10:18:58.710Z,2.70
2022-11-05T10:21:51.508Z,4.72
2022-11-05T10:24:16.980Z,11.50
2022-11-05T10:26:47.561Z,4.05
2022-11-05T10:29:23.641Z,4.47
2022-11-05T10:31:54.134Z,2.50
2022-11-05T10:34:24.861Z,7.45
2022-11-05T10:36:54.358Z,3.90
2022-11-05T10:39:23.420Z,2.67
2022-11-05T10:42:11.829Z,2.40
2022-11-05T10:44:48.422Z,1.92
2022-11-05T10:47:36.648Z,2.20
2022-11-05T10:50:10.176Z,11.48
2022-11-05T10:52:41.159Z,7.13
2022-11-05T10:55:19.761Z,6.65
2022-11-05T10:57:49.448Z,10.32
2022-11-05T11:00:29.369Z,4.00
2022-11-05T11:03:00.406Z,3.03
2022-11-05T11:05:32.754Z,4.47
2022-11-05T11:08:19.423Z,1.75
2022-11-05T11:10:52.522Z,2.90
2022-11-05T11:13:23.022Z,2.47
2022-11-05T11:15:53.445Z,0.82
2022-11-05T11:18:30.903Z,0.77
2022-11-05T11:21:13.990Z,1.05
2022-11-05T11:23:43.304Z,0.90
2022-11-05T11:26:13.783Z,0.80
2022-11-05T11:28:47.129Z,0.80
2022-11-05T11:31:18.859Z,0.80
2022-11-05T11:33:50.402Z,0.85
2022-11-05T11:36:20.507Z,0.73
2022-11-05T11:38:49.195Z,0.80
2022-11-05T11:41:26.739Z,0.98
2022-11-05T11:43:58.421Z,0.90
2022-11-05T11:46:34.050Z,0.98
2022-11-05T11:49:02.498Z,0.98
2022-11-05T11:51:34.228Z,1.80
2022-11-05T11:54:02.795Z,1.02
2022-11-05T11:56:32.638Z,1.20
2022-11-05T11:59:04.355Z,4.80
2022-11-05T12:02:08.871Z,1.23
2022-11-05T12:05:18.657Z,1.77
2022-11-05T12:07:52.844Z,2.17
2022-11-05T12:10:37.381Z,4.78
2022-11-05T12:13:26.023Z,3.78
2022-11-05T12:15:56.756Z,6.93
2022-11-05T12:18:36.328Z,4.90
2022-11-05T12:21:15.395Z,3.30
2022-11-05T12:24:15.444Z,4.63
2022-11-05T12:26:53.760Z,4.40
2022-11-05T12:29:38.180Z,5.45
2022-11-05T12:32:34.900Z,5.70
2022-11-05T12:35:13.161Z,5.25
2022-11-05T12:38:03.074Z,3.47
2022-11-05T12:40:47.913Z,3.83
2022-11-05T12:43:24.464Z,4.43
2022-11-05T12:45:59.828Z,5.45
2022-11-05T12:48:44.034Z,5.60
2022-11-05T12:51:28.229Z,6.20
2022-11-05T12:54:15.885Z,11.43
2022-11-05T12:56:48.039Z,10.38
2022-11-05T12:59:22.301Z,16.85
2022-11-05T13:02:00.122Z,12.63
2022-11-05T13:04:36.947Z,11.48
2022-11-05T13:07:07.806Z,8.05
2022-11-05T13:09:43.139Z,10.45
2022-11-05T13:12:14.311Z,10.13
2022-11-05T13:14:46.758Z,11.38
2022-11-05T13:17:18.067Z,10.57
2022-11-05T13:19:51.768Z,9.93
2022-11-05T13:22:36.849Z,9.95
2022-11-05T13:27:47.931Z,8.53
2022-11-05T13:30:20.659Z,11.95
2022-11-05T13:32:53.914Z,10.43
2022-11-05T13:35:27.333Z,14.07
2022-11-05T13:38:18.002Z,19.52
2022-11-05T13:41:00.946Z,7.70
2022-11-05T13:43:40.793Z,7.55
2022-11-05T13:46:28.876Z,9.65
2022-11-05T13:49:42.643Z,17.17
2022-11-05T13:52:30.743Z,10.98
2022-11-05T13:55:26.926Z,12.35
2022-11-05T13:58:18.590Z,17.38
2022-11-05T14:00:49.915Z,13.40
2022-11-05T14:03:21.477Z,11.73
2022-11-05T14:05:55.122Z,12.45
2022-11-05T14:08:27.920Z,6.88
2022-11-05T14:11:01.792Z,22.58
2022-11-05T14:13:35.863Z,5.20
2022-11-05T14:16:07.860Z,9.32
2022-11-05T14:18:46.477Z,13.73
2022-11-05T14:21:47.308Z,27.40
2022-11-05T14:24:43.141Z,5.95
2022-11-05T14:27:53.898Z,13.43
2022-11-05T14:30:44.868Z,13.52
2022-11-05T14:33:30.731Z,8.05
2022-11-05T14:36:32.397Z,15.52
2022-11-05T14:39:21.273Z,4.55
2022-11-05T14:41:58.232Z,7.57
2022-11-05T14:44:28.017Z,7.10
2022-11-05T14:47:01.035Z,11.32
2022-11-05T14:49:32.041Z,11.85
2022-11-05T14:52:06.621Z,9.13
2022-11-05T14:57:05.359Z,7.75
2022-11-05T14:59:50.871Z,5.00
2022-11-05T15:02:25.138Z,8.90
2022-11-05T15:05:31.556Z,13.65
2022-11-05T15:08:00.394Z,4.78
2022-11-05T15:10:32.911Z,9.88
2022-11-05T15:13:05.602Z,9.95
2022-11-05T15:15:43.625Z,8.27
2022-11-05T15:18:18.661Z,26.85
2022-11-05T15:20:49.594Z,26.60
2022-11-05T15:23:20.349Z,10.23
2022-11-05T15:25:56.133Z,28.15
2022-11-05T15:28:32.075Z,11.93
2022-11-05T15:31:02.312Z,23.33
2022-11-05T15:33:33.299Z,7.15
2022-11-05T15:36:23.412Z,8.88
2022-11-05T15:39:15.128Z,10.18
2022-11-05T15:41:39.958Z,8.50
2022-11-05T15:44:25.463Z,8.00
2022-11-05T15:47:06.972Z,6.88
2022-11-05T15:49:36.995Z,7.80
2022-11-05T15:52:05.578Z,6.80
2022-11-05T15:54:34.039Z,7.75
2022-11-05T15:57:02.301Z,8.15
2022-11-05T15:59:31.312Z,8.30
2022-11-05T16:02:06.913Z,9.13
2022-11-05T16:04:36.616Z,8.73
2022-11-05T16:07:11.074Z,8.95
2022-11-05T16:09:43.659Z,11.57
2022-11-05T16:12:26.071Z,10.13
2022-11-05T16:14:59.062Z,15.68
2022-11-05T16:17:29.368Z,16.80
2022-11-05T16:19:58.835Z,19.83
2022-11-05T16:22:44.741Z,18.88
2022-11-05T16:25:24.834Z,10.70
2022-11-05T16:27:53.082Z,10.02
2022-11-05T16:30:21.623Z,12.05
2022-11-05T16:32:50.532Z,12.63
2022-11-05T16:35:22.456Z,16.77
2022-11-05T16:37:52.465Z,17.05
2022-11-05T16:40:22.745Z,17.63
2022-11-05T16:42:52.268Z,18.50
2022-11-05T16:45:21.532Z,23.17
2022-11-05T16:47:50.309Z,23.73
2022-11-05T16:50:23.406Z,20.60
2022-11-05T16:52:52.320Z,12.98
2022-11-05T16:55:20.633Z,12.52
2022-11-05T16:57:52.306Z,16.20
2022-11-05T17:00:22.491Z,14.80
2022-11-05T17:02:51.107Z,23.40
2022-11-05T17:05:24.142Z,9.95
2022-11-05T17:07:52.660Z,10.55
2022-11-05T17:10:22.038Z,17.83
2022-11-05T17:12:50.270Z,14.88
2022-11-05T17:15:21.578Z,24.65
2022-11-05T17:17:50.235Z,24.83
2022-11-05T17:20:28.245Z,13.52
2022-11-05T17:22:57.552Z,16.38
2022-11-05T17:25:26.531Z,12.57
2022-11-05T17:27:55.051Z,13.50
2022-11-05T17:30:23.607Z,15.55
2022-11-05T17:32:52.147Z,13.73
2022-11-05T17:35:22.009Z,12.25
2022-11-05T17:37:50.048Z,12.55
2022-11-05T17:40:19.945Z,12.57
2022-11-05T17:42:48.243Z,12.60
2022-11-05T17:45:16.412Z,12.02
2022-11-05T17:47:44.930Z,12.35
2022-11-05T17:50:15.622Z,14.05
2022-11-05T17:52:45.479Z,13.68
2022-11-05T17:55:17.625Z,18.60
2022-11-05T17:57:47.279Z,17.88
2022-11-05T18:00:17.936Z,16.30
2022-11-05T18:02:48.442Z,14.88
2022-11-05T18:05:17.370Z,15.88
2022-11-05T18:07:47.178Z,15.07
2022-11-05T18:10:15.755Z,14.07
2022-11-05T18:12:44.958Z,16.58
2022-11-05T18:15:13.886Z,14.88
2022-11-05T18:17:42.726Z,14.60
2022-11-05T18:20:18.407Z,19.02
2022-11-05T18:22:50.554Z,18.88
2022-11-05T18:25:19.114Z,17.85
2022-11-05T18:27:47.321Z,17.58
2022-11-05T18:30:15.991Z,17.38
2022-11-05T18:32:44.538Z,24.88
2022-11-05T18:35:13.218Z,21.85
2022-11-05T18:37:41.575Z,18.63
2022-11-05T18:40:12.702Z,21.73
2022-11-05T18:42:41.244Z,25.15
2022-11-05T18:45:10.991Z,20.52
2022-11-05T18:47:39.162Z,19.48
2022-11-05T18:50:10.413Z,29.67
2022-11-05T18:52:38.585Z,18.30
2022-11-05T18:55:07.976Z,18.90
2022-11-05T18:57:37.422Z,19.95
2022-11-05T19:00:06.447Z,22.40
2022-11-05T19:02:34.572Z,25.77
2022-11-05T19:07:51.608Z,20.13
2022-11-05T19:10:19.936Z,23.02
2022-11-05T19:12:49.507Z,24.23
2022-11-05T19:15:17.648Z,20.02
2022-11-05T19:17:45.802Z,17.17
2022-11-05T19:20:13.988Z,15.73
2022-11-05T19:22:42.136Z,15.85
2022-11-05T19:25:10.132Z,18.35
2022-11-05T19:27:38.693Z,19.23
2022-11-05T19:30:09.022Z,17.00
2022-11-05T19:32:37.192Z,17.23
2022-11-05T19:35:06.058Z,16.65
2022-11-05T19:37:34.137Z,16.73
2022-11-05T19:40:02.199Z,16.85
2022-11-05T19:42:30.245Z,19.83
2022-11-05T19:45:06.901Z,17.35
2022-11-05T19:47:46.363Z,16.85
2022-11-05T19:50:14.525Z,15.45
2022-11-05T19:52:42.615Z,15.07
2022-11-05T19:55:12.222Z,15.63
2022-11-05T19:57:40.992Z,15.75
2022-11-05T20:00:10.662Z,16.05
2022-11-05T20:02:44.647Z,16.85
2022-11-05T20:05:18.729Z,17.63
2022-11-05T20:07:52.841Z,17.75
2022-11-05T20:10:21.479Z,17.88
2022-11-05T20:12:49.813Z,16.63
2022-11-05T20:15:19.560Z,16.02
2022-11-05T20:17:51.622Z,16.58
2022-11-05T20:20:21.365Z,19.35
2022-11-05T20:22:49.395Z,18.65
2022-11-05T20:25:17.626Z,17.67
2022-11-05T20:27:45.773Z,16.98
2022-11-05T20:30:13.991Z,18.63
2022-11-05T20:32:42.038Z,18.88
2022-11-05T20:35:11.040Z,24.30
2022-11-05T20:37:40.456Z,22.80
2022-11-05T20:40:09.451Z,19.73
2022-11-05T20:42:38.088Z,19.73
2022-11-05T20:45:07.140Z,18.65
2022-11-05T20:47:35.809Z,17.92
2022-11-05T20:50:04.536Z,18.95
2022-11-05T20:52:32.531Z,18.88
2022-11-05T20:55:02.216Z,20.13
2022-11-05T20:57:30.208Z,18.92
2022-11-05T20:59:58.226Z,22.10
2022-11-05T21:02:26.303Z,21.00
2022-11-05T21:04:54.480Z,22.08
2022-11-05T21:07:22.546Z,22.90
2022-11-05T21:09:50.633Z,23.65
2022-11-05T21:12:21.504Z,22.13
2022-11-05T21:14:51.021Z,20.90
2022-11-05T21:17:19.150Z,22.70
2022-11-05T21:19:47.209Z,21.00
2022-11-05T21:22:16.061Z,22.10
2022-11-05T21:24:44.481Z,29.00
2022-11-05T21:27:12.427Z,26.15
2022-11-05T21:29:41.895Z,23.25
2022-11-05T21:32:10.763Z,22.23
2022-11-05T21:34:39.030Z,20.65
2022-11-05T21:37:07.110Z,22.60
2022-11-05T21:39:35.437Z,21.40
2022-11-05T21:42:03.527Z,29.50
2022-11-05T21:44:31.678Z,22.60
2022-11-05T21:47:04.494Z,22.67
2022-11-05T21:49:34.879Z,24.20
2022-11-05T21:52:20.291Z,24.52
2022-11-05T21:55:06.223Z,21.85
2022-11-05T21:57:51.916Z,19.50
2022-11-05T22:00:20.349Z,20.35
2022-11-05T22:02:49.776Z,21.00
2022-11-05T22:05:18.443Z,20.10
2022-11-05T22:07:46.526Z,19.13
2022-11-05T22:10:16.520Z,19.33
2022-11-05T22:12:45.371Z,20.23
2022-11-05T22:15:13.821Z,18.52
2022-11-05T22:17:46.445Z,19.23
2022-11-05T22:20:17.747Z,20.77
2022-11-05T22:22:46.019Z,20.40
2022-11-05T22:25:14.740Z,20.98
2022-11-05T22:27:44.032Z,19.77
2022-11-05T22:30:13.906Z,17.63
2022-11-05T22:32:42.256Z,26.85
2022-11-05T22:35:11.031Z,26.90
2022-11-05T22:37:40.584Z,27.30
2022-11-05T22:40:09.755Z,28.42
2022-11-05T22:42:38.039Z,28.45
2022-11-05T22:45:07.228Z,25.83
2022-11-05T22:47:35.375Z,25.92
2022-11-05T22:50:03.957Z,26.27
2022-11-05T22:52:32.746Z,26.80
2022-11-05T22:55:02.699Z,28.40
2022-11-05T22:57:30.740Z,26.75
2022-11-05T22:59:58.784Z,26.50
2022-11-05T23:02:27.004Z,27.65
2022-11-05T23:04:55.225Z,26.35
2022-11-05T23:07:40.568Z,27.83
2022-11-05T23:10:28.193Z,32.35
2022-11-05T23:12:57.493Z,29.70
2022-11-05T23:15:42.008Z,23.90
2022-11-05T23:18:28.624Z,24.15
2022-11-05T23:21:16.957Z,21.88
2022-11-05T23:24:05.423Z,22.75
2022-11-05T23:26:51.956Z,28.33
2022-11-05T23:29:22.162Z,19.90
2022-11-05T23:32:08.029Z,20.17
2022-11-05T23:34:37.973Z,19.67
2022-11-05T23:37:24.050Z,19.40
2022-11-05T23:39:52.153Z,20.20
2022-11-05T23:42:39.484Z,21.08
2022-11-05T23:45:37.595Z,21.38
2022-11-05T23:48:18.782Z,24.15
2022-11-05T23:50:50.469Z,22.15
2022-11-05T23:53:19.103Z,21.42
2022-11-05T23:55:47.427Z,20.33
2022-11-05T23:58:17.365Z,20.63
